Time;durP1;ratioP1;P1;durP2;ratioP2;P2;SDS_P1;SDS_P2;PMS_P1;PMS_P2;Temp;Humidity;BMP_temperature;BMP_pressure;BME280_temperature;BME280_humidity;BME280_pressure;Samples;Min_cycle;Max_cycle;Signal;HPM_P1;HPM_P2
2022/11/23 00:02:15;;;;;;;;;;;9.80;99.90;;;;;;5094481;28;19915;-70
2022/11/23 00:04:41;;;;;;;;;;;9.70;99.90;;;;;;5094450;28;19909;-73
2022/11/23 00:07:07;;;;;;;;;;;9.70;99.90;;;;;;5094666;28;19915;-73
2022/11/23 00:09:32;;;;;;;;;;;9.70;99.90;;;;;;5094336;28;19912;-74
2022/11/23 00:11:58;;;;;;;;;;;9.70;99.90;;;;;;5094852;28;19919;-71
2022/11/23 00:14:23;;;;;;;;;;;9.80;99.90;;;;;;5094592;28;19908;-71
2022/11/23 00:16:48;;;;;;;;;;;9.80;99.90;;;;;;5094284;28;19944;-70
2022/11/23 00:19:14;;;;;;;;;;;9.80;99.90;;;;;;5094183;28;19914;-74
2022/11/23 00:21:39;;;;;;;;;;;9.70;99.90;;;;;;5094429;28;19908;-73
2022/11/23 00:24:05;;;;;;;;;;;9.80;99.90;;;;;;5094115;28;19916;-73
2022/11/23 00:26:30;;;;;;;;;;;9.80;99.90;;;;;;5094641;28;19908;-73
2022/11/23 00:28:56;;;;;;;;;;;9.80;99.90;;;;;;5094040;28;19914;-74
2022/11/23 00:31:21;;;;;;;;;;;9.70;99.90;;;;;;5093510;28;19909;-73
2022/11/23 00:33:51;;;;;;;;;;;9.70;99.90;;;;;;5094229;28;19918;-74
2022/11/23 00:36:17;;;;;;;;;;;9.70;99.90;;;;;;5094219;28;19995;-73
2022/11/23 00:38:43;;;;;;;;;;;9.80;99.90;;;;;;5094489;28;19958;-73
2022/11/23 00:41:13;;;;;;;;;;;9.70;99.90;;;;;;5093855;28;19937;-72
2022/11/23 00:43:39;;;;;;;;;;;9.80;99.90;;;;;;5094075;28;19912;-72
2022/11/23 00:46:07;;;;;;;;;;;9.80;99.90;;;;;;5093831;28;20278;-72
2022/11/23 00:48:33;;;;;;;;;;;9.80;99.90;;;;;;5093799;28;19961;-73
2022/11/23 00:51:00;;;;;;;;;;;9.80;99.90;;;;;;5094033;28;20323;-72
2022/11/23 00:53:26;;;;;;;;;;;9.90;99.90;;;;;;5093513;28;19920;-73
2022/11/23 00:55:52;;;;;;;;;;;9.80;99.90;;;;;;5095961;28;19931;-72
2022/11/23 00:58:17;;;;;;;;;;;9.90;99.90;;;;;;5094818;28;19915;-71
2022/11/23 01:00:43;;;;;;;;;;;9.90;99.90;;;;;;5094471;28;19909;-72
2022/11/23 01:03:09;;;;;;;;;;;9.90;99.90;;;;;;5093663;28;20029;-72
2022/11/23 01:05:38;;;;;;;;;;;10.00;99.90;;;;;;5092080;28;20002;-74
2022/11/23 01:08:04;;;;;;;;;;;10.00;99.90;;;;;;5093876;28;19908;-73
2022/11/23 01:10:30;;;;;;;;;;;10.00;99.90;;;;;;5093520;28;20293;-74
2022/11/23 01:12:55;;;;;;;;;;;10.00;99.90;;;;;;5093484;28;19913;-74
2022/11/23 01:15:21;;;;;;;;;;;10.00;99.90;;;;;;5075479;28;20354;-71
2022/11/23 01:17:46;;;;;;;;;;;10.00;99.90;;;;;;5093815;28;19991;-73
2022/11/23 01:20:12;;;;;;;;;;;10.00;99.90;;;;;;5093796;28;19915;-74
2022/11/23 01:22:37;;;;;;;;;;;10.00;99.90;;;;;;5092746;28;20404;-71
2022/11/23 01:25:03;;;;;;;;;;;10.00;99.90;;;;;;5093464;28;19908;-72
2022/11/23 01:27:28;;;;;;;;;;;10.00;99.90;;;;;;5093420;28;19908;-73
2022/11/23 01:29:54;;;;;;;;;;;10.00;99.90;;;;;;5093396;28;19908;-73
2022/11/23 01:32:19;;;;;;;;;;;10.00;99.90;;;;;;5093297;28;20366;-72
2022/11/23 01:34:45;;;;;;;;;;;10.00;99.90;;;;;;5075261;28;20006;-73
2022/11/23 01:37:11;;;;;;;;;;;10.00;99.90;;;;;;5093883;28;20358;-73
2022/11/23 01:39:36;;;;;;;;;;;10.10;99.90;;;;;;5093364;28;19916;-72
2022/11/23 01:42:05;;;;;;;;;;;10.00;99.90;;;;;;5093627;28;19951;-71
2022/11/23 01:44:32;;;;;;;;;;;10.00;99.90;;;;;;5095813;28;19908;-73
2022/11/23 01:46:59;;;;;;;;;;;10.10;99.90;;;;;;5097089;28;20259;-72
2022/11/23 01:49:26;;;;;;;;;;;10.10;99.90;;;;;;5097315;28;20370;-74
2022/11/23 01:51:53;;;;;;;;;;;10.10;99.90;;;;;;5078533;28;19916;-73
2022/11/23 01:54:21;;;;;;;;;;;10.10;99.90;;;;;;5096953;28;20429;-71
2022/11/23 01:56:50;;;;;;;;;;;10.10;99.90;;;;;;5097681;28;19915;-74
2022/11/23 01:59:17;;;;;;;;;;;10.10;99.90;;;;;;5097097;28;19908;-72
2022/11/23 02:01:42;;;;;;;;;;;10.10;99.90;;;;;;5096797;28;20397;-73
2022/11/23 02:04:10;;;;;;;;;;;10.10;99.90;;;;;;5096745;28;19951;-71
2022/11/23 02:06:36;;;;;;;;;;;10.10;99.90;;;;;;5096727;28;19943;-73
2022/11/23 02:09:02;;;;;;;;;;;10.10;99.90;;;;;;5097206;28;20258;-72
2022/11/23 02:11:27;;;;;;;;;;;10.10;99.90;;;;;;5096874;28;19991;-73
2022/11/23 02:13:53;;;;;;;;;;;10.10;99.90;;;;;;5096764;28;20358;-73
2022/11/23 02:16:18;;;;;;;;;;;10.10;99.90;;;;;;5096510;28;19915;-73
2022/11/23 02:18:45;;;;;;;;;;;10.10;99.90;;;;;;5097042;28;20440;-72
2022/11/23 02:21:11;;;;;;;;;;;10.10;99.90;;;;;;5096864;28;19908;-72
2022/11/23 02:23:55;;;;;;;;;;;10.10;99.90;;;;;;5096656;28;19948;-73
2022/11/23 02:26:23;;;;;;;;;;;10.10;99.90;;;;;;5096323;28;20457;-73
2022/11/23 02:28:57;;;;;;;;;;;10.10;99.90;;;;;;5096286;28;20007;-72
2022/11/23 02:31:22;;;;;;;;;;;10.10;99.90;;;;;;5096551;28;19917;-73
2022/11/23 02:33:48;;;;;;;;;;;10.20;99.90;;;;;;5077943;28;19920;-73
2022/11/23 02:36:26;;;;;;;;;;;10.10;99.90;;;;;;5096444;28;19912;-73
2022/11/23 02:38:53;;;;;;;;;;;10.10;99.90;;;;;;5096431;28;19908;-71
2022/11/23 02:41:18;;;;;;;;;;;10.10;99.90;;;;;;5096658;28;19909;-71
2022/11/23 02:43:46;;;;;;;;;;;10.10;99.90;;;;;;5095959;28;19915;-72
2022/11/23 02:46:12;;;;;;;;;;;10.10;99.90;;;;;;5095956;28;19909;-71
2022/11/23 02:48:37;;;;;;;;;;;10.10;99.90;;;;;;5096463;28;19999;-70
2022/11/23 02:51:03;;;;;;;;;;;10.10;99.90;;;;;;5095581;28;20398;-73
2022/11/23 02:53:28;;;;;;;;;;;10.20;99.90;;;;;;5095387;28;19920;-73
2022/11/23 02:55:55;;;;;;;;;;;10.10;99.90;;;;;;5095026;28;21655;-71
2022/11/23 02:58:21;;;;;;;;;;;10.10;99.90;;;;;;5095776;28;19908;-71
2022/11/23 03:00:46;;;;;;;;;;;10.10;99.90;;;;;;5095965;28;19958;-73
2022/11/23 03:03:12;;;;;;;;;;;10.10;99.90;;;;;;5095679;28;19934;-71
2022/11/23 03:05:37;;;;;;;;;;;10.10;99.90;;;;;;5095893;28;20269;-72
2022/11/23 03:08:03;;;;;;;;;;;10.10;99.90;;;;;;5095533;28;19999;-71
2022/11/23 03:10:29;;;;;;;;;;;10.10;99.90;;;;;;5095465;28;19908;-73
2022/11/23 03:12:55;;;;;;;;;;;10.00;99.90;;;;;;5095380;28;19913;-72
2022/11/23 03:15:21;;;;;;;;;;;10.00;99.90;;;;;;5095671;28;19908;-73
2022/11/23 03:17:46;;;;;;;;;;;10.00;99.90;;;;;;5095375;28;20283;-72
2022/11/23 03:20:12;;;;;;;;;;;10.10;99.90;;;;;;5095294;28;19912;-73
2022/11/23 03:22:38;;;;;;;;;;;10.00;99.90;;;;;;5095262;28;20285;-71
2022/11/23 03:25:04;;;;;;;;;;;10.00;99.90;;;;;;5095507;28;19970;-72
2022/11/23 03:27:32;;;;;;;;;;;10.00;99.90;;;;;;5095159;28;19916;-72
2022/11/23 03:29:58;;;;;;;;;;;10.00;99.90;;;;;;5095140;28;19908;-73
2022/11/23 03:32:23;;;;;;;;;;;10.10;99.90;;;;;;5094996;28;20011;-72
2022/11/23 03:34:49;;;;;;;;;;;10.10;99.90;;;;;;5095051;28;19908;-70
2022/11/23 03:37:14;;;;;;;;;;;10.10;99.90;;;;;;5095003;28;19908;-71
2022/11/23 03:39:40;;;;;;;;;;;10.10;99.90;;;;;;5095198;28;19915;-73
2022/11/23 03:42:05;;;;;;;;;;;10.10;99.90;;;;;;5094879;28;20389;-71
2022/11/23 03:44:31;;;;;;;;;;;10.10;99.90;;;;;;5094837;28;19998;-72
2022/11/23 03:46:56;;;;;;;;;;;10.20;99.90;;;;;;5095075;28;19908;-73
2022/11/23 03:49:22;;;;;;;;;;;10.20;99.90;;;;;;5094742;28;19954;-72
2022/11/23 03:51:47;;;;;;;;;;;10.20;99.90;;;;;;5094628;28;19916;-72
2022/11/23 03:54:13;;;;;;;;;;;10.10;99.90;;;;;;5095240;28;19923;-72
2022/11/23 03:56:38;;;;;;;;;;;10.10;99.90;;;;;;5095152;28;19921;-71
2022/11/23 03:59:04;;;;;;;;;;;10.10;99.90;;;;;;5094914;28;19931;-72
2022/11/23 04:01:29;;;;;;;;;;;10.20;99.90;;;;;;5094533;28;20392;-71
2022/11/23 04:03:55;;;;;;;;;;;10.20;99.90;;;;;;5094486;28;19915;-71
2022/11/23 04:06:20;;;;;;;;;;;10.20;99.90;;;;;;5094176;28;19908;-73
2022/11/23 04:08:46;;;;;;;;;;;10.20;99.90;;;;;;5094686;28;19912;-72
2022/11/23 04:11:11;;;;;;;;;;;10.20;99.90;;;;;;5094352;28;19954;-73
2022/11/23 04:13:37;;;;;;;;;;;10.20;99.90;;;;;;5094192;28;20019;-72
2022/11/23 04:16:02;;;;;;;;;;;10.20;99.90;;;;;;5094530;28;19919;-74
2022/11/23 04:18:28;;;;;;;;;;;10.20;99.90;;;;;;5094183;28;19946;-72
2022/11/23 04:20:53;;;;;;;;;;;10.20;99.90;;;;;;5094160;28;19908;-72
2022/11/23 04:23:19;;;;;;;;;;;10.30;99.90;;;;;;5094677;28;19908;-72
2022/11/23 04:25:45;;;;;;;;;;;10.30;99.90;;;;;;5094076;28;20392;-71
2022/11/23 04:28:10;;;;;;;;;;;10.30;99.90;;;;;;5094365;28;19908;-71
2022/11/23 04:30:36;;;;;;;;;;;10.40;99.90;;;;;;5094051;28;19908;-71
2022/11/23 04:33:01;;;;;;;;;;;10.40;99.90;;;;;;5094003;28;19912;-71
2022/11/23 04:35:26;;;;;;;;;;;10.40;99.90;;;;;;5093965;28;19916;-73
2022/11/23 04:37:52;;;;;;;;;;;10.50;99.90;;;;;;5094239;28;19912;-72
2022/11/23 04:40:17;;;;;;;;;;;10.50;99.90;;;;;;5093893;28;19962;-73
2022/11/23 04:42:43;;;;;;;;;;;10.60;99.90;;;;;;5094058;28;19908;-74
2022/11/23 04:45:10;;;;;;;;;;;10.60;99.90;;;;;;5094149;28;19958;-72
2022/11/23 04:47:35;;;;;;;;;;;10.60;99.90;;;;;;5093852;28;19916;-72
2022/11/23 04:50:01;;;;;;;;;;;10.60;99.90;;;;;;5093772;28;19908;-72
2022/11/23 04:52:26;;;;;;;;;;;10.60;99.90;;;;;;5093657;28;19927;-73
2022/11/23 04:54:52;;;;;;;;;;;10.60;99.90;;;;;;5093742;28;19915;-72
2022/11/23 04:57:17;;;;;;;;;;;10.70;99.90;;;;;;5094518;28;20349;-73
2022/11/23 04:59:43;;;;;;;;;;;10.70;99.90;;;;;;5093963;28;19912;-71
2022/11/23 05:02:09;;;;;;;;;;;10.70;99.90;;;;;;5094246;28;19942;-72
2022/11/23 05:04:34;;;;;;;;;;;10.70;99.90;;;;;;5093630;28;19931;-71
2022/11/23 05:07:00;;;;;;;;;;;10.80;99.90;;;;;;5093644;28;19908;-72
2022/11/23 05:09:26;;;;;;;;;;;10.80;99.90;;;;;;5093835;28;19967;-71
2022/11/23 05:11:51;;;;;;;;;;;10.80;99.90;;;;;;5093518;28;19909;-71
2022/11/23 05:14:16;;;;;;;;;;;10.80;99.90;;;;;;5093563;28;20366;-73
2022/11/23 05:16:42;;;;;;;;;;;10.80;99.90;;;;;;5092276;28;19965;-73
2022/11/23 05:19:08;;;;;;;;;;;10.80;99.90;;;;;;5097591;28;19955;-72
2022/11/23 05:21:33;;;;;;;;;;;10.80;99.90;;;;;;5097844;28;19912;-73
2022/11/23 05:23:59;;;;;;;;;;;10.90;99.90;;;;;;5097548;28;19965;-72
2022/11/23 05:26:24;;;;;;;;;;;10.80;99.90;;;;;;5097536;28;19978;-71
2022/11/23 05:28:50;;;;;;;;;;;10.90;99.90;;;;;;5097773;28;19914;-73
2022/11/23 05:31:16;;;;;;;;;;;10.90;99.90;;;;;;5097390;28;20340;-70
2022/11/23 05:33:41;;;;;;;;;;;10.90;99.90;;;;;;5097295;28;20422;-71
2022/11/23 05:36:07;;;;;;;;;;;10.90;99.90;;;;;;5097332;28;19909;-72
2022/11/23 05:38:32;;;;;;;;;;;11.00;99.90;;;;;;5097564;28;20282;-72
2022/11/23 05:40:58;;;;;;;;;;;11.00;99.90;;;;;;5097233;28;19916;-73
2022/11/23 05:43:24;;;;;;;;;;;11.00;99.90;;;;;;5096806;28;20382;-74
2022/11/23 05:45:49;;;;;;;;;;;11.10;99.90;;;;;;5097159;28;19916;-75
2022/11/23 05:48:15;;;;;;;;;;;11.10;99.90;;;;;;5097067;28;20327;-72
2022/11/23 05:50:41;;;;;;;;;;;11.10;99.90;;;;;;5097604;28;19908;-73
2022/11/23 05:53:06;;;;;;;;;;;11.10;99.90;;;;;;5096761;28;19920;-70
2022/11/23 05:55:32;;;;;;;;;;;11.20;99.90;;;;;;5096947;28;19908;-73
2022/11/23 05:57:57;;;;;;;;;;;11.20;99.90;;;;;;5097469;28;19909;-73
2022/11/23 06:00:23;;;;;;;;;;;11.20;99.90;;;;;;5097100;28;20282;-71
2022/11/23 06:02:48;;;;;;;;;;;11.20;99.90;;;;;;5096831;28;19939;-72
2022/11/23 06:05:14;;;;;;;;;;;11.30;99.90;;;;;;5096757;28;19908;-72
2022/11/23 06:07:39;;;;;;;;;;;11.30;99.90;;;;;;5097033;28;19948;-73
2022/11/23 06:10:05;;;;;;;;;;;11.30;99.90;;;;;;5078456;28;20319;-72
2022/11/23 06:12:31;;;;;;;;;;;11.40;99.90;;;;;;5096814;28;20010;-73
2022/11/23 06:14:56;;;;;;;;;;;11.40;99.90;;;;;;5096550;28;20008;-72
2022/11/23 06:17:22;;;;;;;;;;;11.40;99.90;;;;;;5096500;28;20394;-72
2022/11/23 06:19:48;;;;;;;;;;;11.30;99.90;;;;;;5096512;28;19911;-70
2022/11/23 06:22:14;;;;;;;;;;;11.30;99.90;;;;;;5097018;28;19965;-72
2022/11/23 06:24:39;;;;;;;;;;;11.30;99.90;;;;;;5096415;28;19909;-72
2022/11/23 06:27:05;;;;;;;;;;;11.30;99.90;;;;;;5096339;28;19908;-73
2022/11/23 06:29:30;;;;;;;;;;;11.30;99.90;;;;;;5095432;28;19940;-72
2022/11/23 06:31:56;;;;;;;;;;;11.30;99.90;;;;;;5096470;28;20355;-72
2022/11/23 06:34:21;;;;;;;;;;;11.30;99.90;;;;;;5096230;28;19908;-72
2022/11/23 06:36:47;;;;;;;;;;;11.40;99.90;;;;;;5096187;28;19909;-71
2022/11/23 06:39:12;;;;;;;;;;;11.40;99.90;;;;;;5096444;28;20401;-74
2022/11/23 06:41:38;;;;;;;;;;;11.30;99.90;;;;;;5096399;28;19947;-71
2022/11/23 06:44:04;;;;;;;;;;;11.30;99.90;;;;;;5095928;28;19908;-72
2022/11/23 06:46:29;;;;;;;;;;;11.30;99.90;;;;;;5096003;28;19915;-72
2022/11/23 06:48:55;;;;;;;;;;;11.30;99.90;;;;;;5095985;28;20378;-73
2022/11/23 06:51:20;;;;;;;;;;;11.30;99.90;;;;;;5095713;28;19908;-72
2022/11/23 06:53:46;;;;;;;;;;;11.30;99.90;;;;;;5077570;28;20370;-72
2022/11/23 06:56:11;;;;;;;;;;;11.30;99.90;;;;;;5096580;28;19916;-71
2022/11/23 06:58:37;;;;;;;;;;;11.30;99.90;;;;;;5095759;28;19961;-72
2022/11/23 07:01:04;;;;;;;;;;;11.30;99.90;;;;;;5095715;28;19912;-73
2022/11/23 07:03:29;;;;;;;;;;;11.20;99.90;;;;;;5095938;28;19912;-72
2022/11/23 07:05:55;;;;;;;;;;;11.20;99.90;;;;;;5095614;28;20293;-71
2022/11/23 07:08:20;;;;;;;;;;;11.10;99.90;;;;;;5095560;28;19908;-72
2022/11/23 07:10:46;;;;;;;;;;;11.10;99.90;;;;;;5095530;28;19915;-72
2022/11/23 07:13:13;;;;;;;;;;;11.10;99.90;;;;;;5095701;28;19924;-71
2022/11/23 07:15:39;;;;;;;;;;;11.10;99.90;;;;;;5095784;28;20006;-73
2022/11/23 07:18:05;;;;;;;;;;;11.10;99.90;;;;;;5098633;28;20251;-71
2022/11/23 07:20:30;;;;;;;;;;;11.00;99.90;;;;;;5098181;28;19915;-72
2022/11/23 07:23:00;;;;;;;;;;;11.00;99.90;;;;;;5095565;28;19908;-71
2022/11/23 07:25:26;;;;;;;;;;;10.90;99.90;;;;;;5095231;28;19931;-71
2022/11/23 07:27:59;;;;;;;;;;;10.90;99.90;;;;;;5095148;28;19908;-71
2022/11/23 07:30:25;;;;;;;;;;;10.90;99.90;;;;;;5095388;28;19909;-71
2022/11/23 07:32:51;;;;;;;;;;;10.90;99.90;;;;;;5095326;28;19920;-71
2022/11/23 07:35:17;;;;;;;;;;;10.90;99.90;;;;;;5094997;28;19908;-71
2022/11/23 07:37:43;;;;;;;;;;;10.90;99.90;;;;;;5095269;28;19958;-70
2022/11/23 07:40:08;;;;;;;;;;;10.80;99.90;;;;;;5094872;28;19912;-70
2022/11/23 07:42:34;;;;;;;;;;;10.80;99.90;;;;;;5094881;28;19957;-73
2022/11/23 07:44:59;;;;;;;;;;;10.80;99.90;;;;;;5094792;28;19912;-73
2022/11/23 07:47:25;;;;;;;;;;;10.90;99.90;;;;;;5095116;28;19999;-71
2022/11/23 07:49:50;;;;;;;;;;;10.90;99.90;;;;;;5094766;28;19914;-71
2022/11/23 07:52:16;;;;;;;;;;;10.90;99.90;;;;;;5094639;28;19969;-71
2022/11/23 07:54:41;;;;;;;;;;;11.00;99.90;;;;;;5094676;28;19908;-72
2022/11/23 07:57:07;;;;;;;;;;;11.00;99.90;;;;;;5095391;28;19958;-71
2022/11/23 07:59:32;;;;;;;;;;;11.10;99.90;;;;;;5094591;28;19912;-71
2022/11/23 08:01:58;;;;;;;;;;;11.10;99.90;;;;;;5094828;28;20034;-73
2022/11/23 08:04:25;;;;;;;;;;;11.10;99.90;;;;;;5094496;28;19908;-72
2022/11/23 08:06:51;;;;;;;;;;;11.00;99.90;;;;;;5094701;28;19908;-72
2022/11/23 08:09:16;;;;;;;;;;;11.00;99.90;;;;;;5094685;28;19908;-71
2022/11/23 08:11:42;;;;;;;;;;;10.90;99.90;;;;;;5094440;28;19908;-72
2022/11/23 08:14:07;;;;;;;;;;;10.90;99.90;;;;;;5094311;28;19912;-73
2022/11/23 08:16:33;;;;;;;;;;;10.90;99.90;;;;;;5094627;28;19912;-73
2022/11/23 08:18:58;;;;;;;;;;;10.90;99.90;;;;;;5094285;28;19908;-72
2022/11/23 08:21:24;;;;;;;;;;;10.90;99.90;;;;;;5094789;28;20315;-71
2022/11/23 08:23:49;;;;;;;;;;;10.90;99.90;;;;;;5094469;28;19942;-71
2022/11/23 08:26:15;;;;;;;;;;;10.90;99.90;;;;;;5094182;28;19915;-73
2022/11/23 08:28:40;;;;;;;;;;;10.90;99.90;;;;;;5094072;28;19952;-74
2022/11/23 08:31:13;;;;;;;;;;;10.90;99.90;;;;;;5094050;28;19956;-72
2022/11/23 08:33:39;;;;;;;;;;;10.90;99.90;;;;;;5094234;28;19912;-72
2022/11/23 08:36:05;;;;;;;;;;;10.90;99.90;;;;;;5094006;28;19916;-72
2022/11/23 08:38:31;;;;;;;;;;;11.00;99.90;;;;;;5093976;28;19912;-72
2022/11/23 08:41:01;;;;;;;;;;;11.00;99.90;;;;;;5094215;28;19916;-72
2022/11/23 08:43:27;;;;;;;;;;;11.00;99.90;;;;;;5093804;28;20003;-71
2022/11/23 08:45:59;;;;;;;;;;;11.00;99.90;;;;;;5093883;28;19908;-72
2022/11/23 08:48:24;;;;;;;;;;;11.00;99.90;;;;;;5094347;28;20385;-73
2022/11/23 08:50:50;;;;;;;;;;;11.00;99.90;;;;;;5093786;28;19909;-72
2022/11/23 08:53:16;;;;;;;;;;;11.10;99.90;;;;;;5092866;28;20467;-72
2022/11/23 08:55:41;;;;;;;;;;;11.00;99.90;;;;;;5093742;28;20003;-71
2022/11/23 08:58:07;;;;;;;;;;;11.00;99.90;;;;;;5094797;28;19969;-73
2022/11/23 09:00:33;;;;;;;;;;;11.10;99.90;;;;;;5093948;28;20460;-73
2022/11/23 09:02:59;;;;;;;;;;;11.10;99.90;;;;;;5094251;28;19947;-72
2022/11/23 09:05:27;;;;;;;;;;;11.10;99.90;;;;;;5092420;28;19915;-71
2022/11/23 09:07:53;;;;;;;;;;;11.20;99.90;;;;;;5093878;28;20393;-72
2022/11/23 09:10:19;;;;;;;;;;;11.20;99.90;;;;;;5093876;28;19915;-73
2022/11/23 09:12:45;;;;;;;;;;;11.30;99.90;;;;;;5093556;28;20315;-72
2022/11/23 09:15:11;;;;;;;;;;;11.60;99.90;;;;;;5094087;28;19908;-75
2022/11/23 09:17:36;;;;;;;;;;;11.90;99.90;;;;;;5093534;28;19914;-76
2022/11/23 09:20:02;;;;;;;;;;;12.20;99.90;;;;;;5093314;28;19909;-72
2022/11/23 09:22:27;;;;;;;;;;;12.40;99.90;;;;;;5093444;28;19909;-72
2022/11/23 09:24:53;;;;;;;;;;;12.60;99.90;;;;;;5093465;28;20362;-72
2022/11/23 09:27:18;;;;;;;;;;;12.80;99.90;;;;;;5093456;28;19908;-70
2022/11/23 09:29:44;;;;;;;;;;;13.00;99.90;;;;;;5094009;28;19944;-72
2022/11/23 09:32:10;;;;;;;;;;;13.10;99.90;;;;;;5093340;28;19914;-73
2022/11/23 09:34:35;;;;;;;;;;;13.20;99.90;;;;;;5093635;28;20296;-71
2022/11/23 09:37:01;;;;;;;;;;;13.20;99.90;;;;;;5093321;28;19908;-73
2022/11/23 09:39:27;;;;;;;;;;;13.30;99.90;;;;;;5093569;28;19933;-71
2022/11/23 09:41:52;;;;;;;;;;;13.30;99.90;;;;;;5075170;28;19916;-72
2022/11/23 09:44:27;;;;;;;;;;;13.40;99.90;;;;;;5093285;28;19908;-73
2022/11/23 09:47:11;;;;;;;;;;;13.50;99.90;;;;;;5093516;28;19929;-72
2022/11/23 09:52:37;;;;;;;;;;;13.60;99.90;;;;;;5093004;28;20400;-72
2022/11/23 09:55:15;;;;;;;;;;;13.70;99.90;;;;;;5093770;28;20003;-71
2022/11/23 09:57:42;;;;;;;;;;;13.80;99.90;;;;;;5093707;28;20003;-71
2022/11/23 10:00:19;;;;;;;;;;;13.80;99.90;;;;;;5093714;28;19915;-71
2022/11/23 10:02:44;;;;;;;;;;;13.80;99.90;;;;;;5093166;28;19995;-72
2022/11/23 10:05:16;;;;;;;;;;;13.90;99.90;;;;;;5095065;28;20349;-72
2022/11/23 10:08:00;;;;;;;;;;;13.90;99.90;;;;;;5097142;28;19994;-71
2022/11/23 10:10:35;;;;;;;;;;;13.90;99.90;;;;;;5096708;28;19916;-71
2022/11/23 10:13:04;;;;;;;;;;;13.90;99.90;;;;;;5096893;28;19912;-72
2022/11/23 10:15:36;;;;;;;;;;;13.90;99.90;;;;;;5096604;28;19912;-72
2022/11/23 10:18:07;;;;;;;;;;;13.90;99.90;;;;;;5096865;28;19954;-71
2022/11/23 10:20:33;;;;;;;;;;;13.90;99.90;;;;;;5096570;28;19937;-71
2022/11/23 10:23:00;;;;;;;;;;;13.90;99.90;;;;;;5096733;28;19912;-71
2022/11/23 10:25:28;;;;;;;;;;;13.90;99.90;;;;;;5096415;28;20385;-71
2022/11/23 10:27:57;;;;;;;;;;;14.00;99.90;;;;;;5096405;28;20393;-71
2022/11/23 10:30:22;;;;;;;;;;;14.00;99.90;;;;;;5096295;28;20381;-71
2022/11/23 10:32:54;;;;;;;;;;;14.00;99.90;;;;;;5096509;28;19912;-71
2022/11/23 10:35:33;;;;;;;;;;;13.90;99.90;;;;;;5096231;28;19915;-70
2022/11/23 10:38:18;;;;;;;;;;;13.80;99.90;;;;;;5096404;28;19908;-71
2022/11/23 10:40:49;;;;;;;;;;;13.70;99.90;;;;;;5096083;28;20408;-71
2022/11/23 10:43:16;;;;;;;;;;;13.80;99.90;;;;;;5096207;28;19915;-71
2022/11/23 10:45:41;;;;;;;;;;;13.80;99.90;;;;;;5096021;28;20014;-71
2022/11/23 10:48:07;;;;;;;;;;;13.90;99.90;;;;;;5096312;28;19944;-71
2022/11/23 10:50:36;;;;;;;;;;;13.90;99.90;;;;;;5095864;28;19916;-71
2022/11/23 10:53:04;;;;;;;;;;;14.00;99.90;;;;;;5095731;28;19924;-71
2022/11/23 10:55:31;;;;;;;;;;;14.00;99.90;;;;;;5096404;28;19916;-70
2022/11/23 10:57:57;;;;;;;;;;;14.00;99.90;;;;;;5096633;28;19943;-71
2022/11/23 11:00:24;;;;;;;;;;;13.90;99.90;;;;;;5095836;28;20372;-72
2022/11/23 11:02:53;;;;;;;;;;;13.90;99.90;;;;;;5096324;28;19908;-71
2022/11/23 11:05:33;;;;;;;;;;;13.80;99.90;;;;;;5095657;28;20286;-71
2022/11/23 11:08:03;;;;;;;;;;;13.60;99.90;;;;;;5095862;28;19908;-72
2022/11/23 11:10:51;;;;;;;;;;;13.60;99.90;;;;;;5095829;28;19914;-72
2022/11/23 11:13:28;;;;;;;;;;;13.50;99.90;;;;;;5095569;28;19973;-71
2022/11/23 11:16:01;;;;;;;;;;;13.40;99.90;;;;;;5095090;28;20335;-71
2022/11/23 11:18:28;;;;;;;;;;;13.40;99.90;;;;;;5095684;28;19914;-70
2022/11/23 11:21:01;;;;;;;;;;;13.40;99.90;;;;;;5095315;28;19912;-71
2022/11/23 11:23:28;;;;;;;;;;;13.40;99.90;;;;;;5095582;28;19908;-71
2022/11/23 11:26:19;;;;;;;;;;;13.30;99.90;;;;;;5095245;28;20297;-73
2022/11/23 11:28:52;;;;;;;;;;;13.30;99.90;;;;;;5095777;28;19947;-71
2022/11/23 11:31:18;;;;;;;;;;;13.30;99.90;;;;;;5095151;28;20402;-71
2022/11/23 11:33:55;;;;;;;;;;;13.30;99.90;;;;;;5095056;28;20015;-72
2022/11/23 11:36:21;;;;;;;;;;;13.30;99.90;;;;;;5095392;28;20370;-71
2022/11/23 11:38:49;;;;;;;;;;;13.30;99.90;;;;;;5095002;28;19959;-72
2022/11/23 11:41:18;;;;;;;;;;;13.30;99.90;;;;;;5094915;28;19908;-71
2022/11/23 11:43:46;;;;;;;;;;;13.30;99.90;;;;;;5095086;28;19912;-72
2022/11/23 11:46:22;;;;;;;;;;;13.30;99.90;;;;;;5094848;28;19909;-71
2022/11/23 11:48:53;;;;;;;;;;;13.30;99.90;;;;;;5095370;28;20278;-73
2022/11/23 11:51:28;;;;;;;;;;;13.30;99.90;;;;;;5094518;28;20056;-71
2022/11/23 11:54:14;;;;;;;;;;;13.40;99.90;;;;;;5094967;28;19912;-72
2022/11/23 11:56:48;;;;;;;;;;;13.40;99.90;;;;;;5094030;28;20045;-72
2022/11/23 11:59:20;;;;;;;;;;;13.40;99.90;;;;;;5095493;28;19920;-71
2022/11/23 12:01:55;;;;;;;;;;;13.40;99.90;;;;;;5094590;28;19908;-69
2022/11/23 12:04:26;;;;;;;;;;;13.50;99.90;;;;;;5094852;28;19912;-70
2022/11/23 12:06:55;;;;;;;;;;;13.50;99.90;;;;;;5076407;28;19915;-70
2022/11/23 12:09:23;;;;;;;;;;;13.50;99.90;;;;;;5095040;28;19997;-69
2022/11/23 12:11:48;;;;;;;;;;;13.50;99.90;;;;;;5094417;28;19908;-71
2022/11/23 12:14:14;;;;;;;;;;;13.50;99.90;;;;;;5094298;28;20397;-71
2022/11/23 12:17:04;;;;;;;;;;;13.60;99.90;;;;;;5094309;28;19912;-70
2022/11/23 12:19:30;;;;;;;;;;;13.60;99.90;;;;;;5094878;28;20358;-71
2022/11/23 12:22:14;;;;;;;;;;;13.60;99.90;;;;;;5094225;28;19915;-72
2022/11/23 12:24:40;;;;;;;;;;;13.60;99.90;;;;;;5094178;28;19908;-71
2022/11/23 12:27:21;;;;;;;;;;;13.60;99.90;;;;;;5093440;28;19908;-72
2022/11/23 12:29:58;;;;;;;;;;;13.60;99.90;;;;;;5094443;28;19908;-71
2022/11/23 12:32:31;;;;;;;;;;;13.70;99.90;;;;;;5093963;28;19916;-71
2022/11/23 12:35:15;;;;;;;;;;;13.70;99.90;;;;;;5094345;28;19915;-70
2022/11/23 12:38:03;;;;;;;;;;;13.80;99.90;;;;;;5093944;28;19955;-70
2022/11/23 12:40:37;;;;;;;;;;;13.80;99.90;;;;;;5093928;28;19914;-70
2022/11/23 12:43:09;;;;;;;;;;;13.80;99.90;;;;;;5094268;28;19963;-71
2022/11/23 12:45:53;;;;;;;;;;;13.90;99.90;;;;;;5093882;28;19947;-71
2022/11/23 12:48:37;;;;;;;;;;;14.00;99.90;;;;;;5093803;28;19908;-72
2022/11/23 12:51:09;;;;;;;;;;;14.10;99.90;;;;;;5093774;28;19931;-71
2022/11/23 12:53:40;;;;;;;;;;;14.30;99.90;;;;;;5093287;28;20015;-71
2022/11/23 12:56:06;;;;;;;;;;;14.40;99.90;;;;;;5094316;28;19912;-71
2022/11/23 12:58:33;;;;;;;;;;;14.50;99.90;;;;;;5094231;28;19961;-72
2022/11/23 13:01:05;;;;;;;;;;;14.60;99.90;;;;;;5093987;28;20354;-71
2022/11/23 13:03:33;;;;;;;;;;;14.70;99.90;;;;;;5093658;28;19932;-71
2022/11/23 13:06:02;;;;;;;;;;;14.60;99.90;;;;;;5093645;28;19912;-71
2022/11/23 13:08:43;;;;;;;;;;;14.60;99.90;;;;;;5093925;28;20358;-73
2022/11/23 13:11:23;;;;;;;;;;;14.50;99.90;;;;;;5093883;28;19933;-71
2022/11/23 13:13:48;;;;;;;;;;;14.50;99.90;;;;;;5093750;28;19919;-71
2022/11/23 13:16:25;;;;;;;;;;;14.30;99.90;;;;;;5093534;28;19908;-71
2022/11/23 13:18:59;;;;;;;;;;;14.20;99.90;;;;;;5094104;28;19908;-71
2022/11/23 13:21:32;;;;;;;;;;;14.00;99.90;;;;;;5093497;28;19909;-72
2022/11/23 13:23:58;;;;;;;;;;;13.80;99.90;;;;;;5093461;28;19961;-72
2022/11/23 13:26:25;;;;;;;;;;;13.60;99.90;;;;;;5075350;28;19916;-72
2022/11/23 13:28:51;;;;;;;;;;;13.60;99.90;;;;;;5094009;28;19908;-71
2022/11/23 13:31:29;;;;;;;;;;;13.50;99.90;;;;;;5093719;28;19908;-72
2022/11/23 13:33:55;;;;;;;;;;;13.60;99.90;;;;;;5093680;28;19919;-72
2022/11/23 13:36:30;;;;;;;;;;;13.60;99.90;;;;;;5093399;28;20281;-71
2022/11/23 13:38:56;;;;;;;;;;;13.60;99.90;;;;;;5076953;28;20290;-71
2022/11/23 13:41:34;;;;;;;;;;;13.60;99.90;;;;;;5097605;28;19908;-72
2022/11/23 13:44:18;;;;;;;;;;;13.70;99.90;;;;;;5097191;28;19909;-70
2022/11/23 13:46:55;;;;;;;;;;;13.70;99.90;;;;;;5097528;28;20361;-71
2022/11/23 13:49:44;;;;;;;;;;;13.70;99.90;;;;;;5078690;28;20437;-70
2022/11/23 13:52:29;;;;;;;;;;;13.70;99.90;;;;;;5088511;28;19919;-72
2022/11/23 13:54:57;;;;;;;;;;;13.80;99.90;;;;;;5097364;28;19953;-71
2022/11/23 13:57:23;;;;;;;;;;;13.80;99.90;;;;;;5097497;28;20419;-72
2022/11/23 13:59:48;;;;;;;;;;;13.80;99.90;;;;;;5096967;28;19912;-72
2022/11/23 14:02:29;;;;;;;;;;;13.80;99.90;;;;;;5097217;28;19908;-71
2022/11/23 14:05:29;;;;;;;;;;;13.80;99.90;;;;;;5096809;28;19931;-71
2022/11/23 14:07:55;;;;;;;;;;;13.80;99.90;;;;;;5097124;28;19996;-71
2022/11/23 14:10:22;;;;;;;;;;;13.80;99.90;;;;;;5096748;28;19958;-73
2022/11/23 14:12:47;;;;;;;;;;;13.90;99.90;;;;;;5096974;28;19912;-70
2022/11/23 14:15:31;;;;;;;;;;;13.90;99.90;;;;;;5096701;28;19912;-71
2022/11/23 14:18:26;;;;;;;;;;;13.90;99.90;;;;;;5096875;28;19915;-72
2022/11/23 14:21:12;;;;;;;;;;;13.80;99.90;;;;;;5096909;28;20278;-71
2022/11/23 14:23:56;;;;;;;;;;;13.80;99.90;;;;;;5096484;28;20401;-72
2022/11/23 14:26:40;;;;;;;;;;;13.70;99.90;;;;;;5096911;28;19916;-71
2022/11/23 14:29:15;;;;;;;;;;;13.60;99.90;;;;;;5096340;28;19931;-72